sensor_id;sensor_type;location;lat;lon;timestamp;P1;durP1;ratioP1;P2;durP2;ratioP2
22935;SDS011;11633;42.716;23.312;2022-08-04T00:04:06;3.28;;;2.53;;
22935;SDS011;11633;42.716;23.312;2022-08-04T00:09:00;2.33;;;2.10;;
22935;SDS011;11633;42.716;23.312;2022-08-04T00:11:28;3.15;;;2.75;;
22935;SDS011;11633;42.716;23.312;2022-08-04T00:14:03;3.25;;;2.28;;
22935;SDS011;11633;42.716;23.312;2022-08-04T00:16:31;2.45;;;2.25;;
22935;SDS011;11633;42.716;23.312;2022-08-04T00:18:57;4.53;;;2.78;;
22935;SDS011;11633;42.716;23.312;2022-08-04T00:21:25;3.97;;;2.47;;
22935;SDS011;11633;42.716;23.312;2022-08-04T00:23:52;7.22;;;2.35;;
22935;SDS011;11633;42.716;23.312;2022-08-04T00:26:18;3.00;;;2.28;;
22935;SDS011;11633;42.716;23.312;2022-08-04T00:28:44;3.90;;;2.60;;
22935;SDS011;11633;42.716;23.312;2022-08-04T00:31:10;3.10;;;2.38;;
22935;SDS011;11633;42.716;23.312;2022-08-04T00:33:38;4.10;;;2.92;;
22935;SDS011;11633;42.716;23.312;2022-08-04T00:36:04;3.30;;;2.88;;
22935;SDS011;11633;42.716;23.312;2022-08-04T00:38:30;3.15;;;2.70;;
22935;SDS011;11633;42.716;23.312;2022-08-04T00:43:27;2.83;;;2.63;;
22935;SDS011;11633;42.716;23.312;2022-08-04T00:51:05;3.35;;;2.75;;
22935;SDS011;11633;42.716;23.312;2022-08-04T00:56:04;3.38;;;3.03;;
22935;SDS011;11633;42.716;23.312;2022-08-04T00:58:42;4.30;;;3.00;;
22935;SDS011;11633;42.716;23.312;2022-08-04T01:01:11;3.70;;;2.72;;
22935;SDS011;11633;42.716;23.312;2022-08-04T01:03:49;3.00;;;2.60;;
22935;SDS011;11633;42.716;23.312;2022-08-04T01:16:26;2.67;;;2.20;;
22935;SDS011;11633;42.716;23.312;2022-08-04T01:18:57;2.53;;;2.33;;
22935;SDS011;11633;42.716;23.312;2022-08-04T01:26:49;2.35;;;2.03;;
22935;SDS011;11633;42.716;23.312;2022-08-04T01:29:16;2.42;;;2.22;;
22935;SDS011;11633;42.716;23.312;2022-08-04T01:34:18;2.08;;;1.58;;
22935;SDS011;11633;42.716;23.312;2022-08-04T01:36:45;2.13;;;1.92;;
22935;SDS011;11633;42.716;23.312;2022-08-04T01:39:11;2.92;;;2.30;;
22935;SDS011;11633;42.716;23.312;2022-08-04T01:41:55;2.47;;;2.28;;
22935;SDS011;11633;42.716;23.312;2022-08-04T01:44:22;2.13;;;1.85;;
22935;SDS011;11633;42.716;23.312;2022-08-04T01:46:48;3.33;;;2.28;;
22935;SDS011;11633;42.716;23.312;2022-08-04T01:49:14;4.60;;;2.58;;
22935;SDS011;11633;42.716;23.312;2022-08-04T01:51:40;2.03;;;1.88;;
22935;SDS011;11633;42.716;23.312;2022-08-04T01:54:06;2.22;;;2.00;;
22935;SDS011;11633;42.716;23.312;2022-08-04T01:56:33;2.10;;;1.88;;
22935;SDS011;11633;42.716;23.312;2022-08-04T01:58:58;2.08;;;1.75;;
22935;SDS011;11633;42.716;23.312;2022-08-04T02:01:24;2.08;;;1.73;;
22935;SDS011;11633;42.716;23.312;2022-08-04T02:03:49;3.47;;;2.22;;
22935;SDS011;11633;42.716;23.312;2022-08-04T02:08:50;2.13;;;1.92;;
22935;SDS011;11633;42.716;23.312;2022-08-04T02:11:17;2.28;;;2.08;;
22935;SDS011;11633;42.716;23.312;2022-08-04T02:14:10;1.73;;;1.60;;
22935;SDS011;11633;42.716;23.312;2022-08-04T02:16:59;2.53;;;1.98;;
22935;SDS011;11633;42.716;23.312;2022-08-04T02:19:29;2.20;;;2.00;;
22935;SDS011;11633;42.716;23.312;2022-08-04T02:21:57;2.00;;;1.80;;
22935;SDS011;11633;42.716;23.312;2022-08-04T02:24:26;2.22;;;1.98;;
22935;SDS011;11633;42.716;23.312;2022-08-04T02:26:54;2.13;;;1.92;;
22935;SDS011;11633;42.716;23.312;2022-08-04T02:29:39;2.03;;;1.80;;
22935;SDS011;11633;42.716;23.312;2022-08-04T02:32:14;2.53;;;2.10;;
22935;SDS011;11633;42.716;23.312;2022-08-04T02:37:08;4.90;;;2.10;;
22935;SDS011;11633;42.716;23.312;2022-08-04T02:39:35;3.75;;;2.55;;
22935;SDS011;11633;42.716;23.312;2022-08-04T02:42:00;1.98;;;1.77;;
22935;SDS011;11633;42.716;23.312;2022-08-04T02:44:27;3.05;;;2.45;;
22935;SDS011;11633;42.716;23.312;2022-08-04T02:46:53;2.30;;;1.92;;
22935;SDS011;11633;42.716;23.312;2022-08-04T02:49:18;3.38;;;2.45;;
22935;SDS011;11633;42.716;23.312;2022-08-04T02:51:45;2.80;;;2.13;;
22935;SDS011;11633;42.716;23.312;2022-08-04T02:54:11;3.67;;;2.28;;
22935;SDS011;11633;42.716;23.312;2022-08-04T02:56:39;3.25;;;2.30;;
22935;SDS011;11633;42.716;23.312;2022-08-04T02:59:06;3.17;;;2.15;;
22935;SDS011;11633;42.716;23.312;2022-08-04T03:01:32;4.55;;;2.60;;
22935;SDS011;11633;42.716;23.312;2022-08-04T03:09:20;2.28;;;2.08;;
22935;SDS011;11633;42.716;23.312;2022-08-04T03:14:33;2.35;;;2.15;;
22935;SDS011;11633;42.716;23.312;2022-08-04T03:20:27;2.22;;;2.03;;
22935;SDS011;11633;42.716;23.312;2022-08-04T03:43:00;4.55;;;2.53;;
22935;SDS011;11633;42.716;23.312;2022-08-04T04:01:05;3.80;;;2.70;;
22935;SDS011;11633;42.716;23.312;2022-08-04T04:24:08;4.82;;;2.83;;
22935;SDS011;11633;42.716;23.312;2022-08-04T04:29:19;6.55;;;3.08;;
22935;SDS011;11633;42.716;23.312;2022-08-04T04:32:03;3.00;;;2.65;;
22935;SDS011;11633;42.716;23.312;2022-08-04T04:52:05;3.10;;;2.63;;
22935;SDS011;11633;42.716;23.312;2022-08-04T04:59:33;4.65;;;3.00;;
22935;SDS011;11633;42.716;23.312;2022-08-04T05:10:06;2.92;;;2.63;;
22935;SDS011;11633;42.716;23.312;2022-08-04T05:15:15;2.78;;;2.58;;
22935;SDS011;11633;42.716;23.312;2022-08-04T05:17:41;3.58;;;2.97;;
22935;SDS011;11633;42.716;23.312;2022-08-04T05:20:15;3.10;;;2.80;;
22935;SDS011;11633;42.716;23.312;2022-08-04T05:22:46;3.60;;;3.17;;
22935;SDS011;11633;42.716;23.312;2022-08-04T05:25:19;4.03;;;3.45;;
22935;SDS011;11633;42.716;23.312;2022-08-04T05:27:48;3.17;;;2.88;;
22935;SDS011;11633;42.716;23.312;2022-08-04T05:30:14;3.85;;;3.55;;
22935;SDS011;11633;42.716;23.312;2022-08-04T05:32:42;3.35;;;2.95;;
22935;SDS011;11633;42.716;23.312;2022-08-04T05:35:20;5.78;;;3.28;;
22935;SDS011;11633;42.716;23.312;2022-08-04T05:37:46;5.30;;;3.42;;
22935;SDS011;11633;42.716;23.312;2022-08-04T05:40:13;3.35;;;2.92;;
22935;SDS011;11633;42.716;23.312;2022-08-04T05:42:41;2.90;;;2.65;;
22935;SDS011;11633;42.716;23.312;2022-08-04T05:45:07;3.63;;;3.20;;
22935;SDS011;11633;42.716;23.312;2022-08-04T05:47:33;4.22;;;3.83;;
22935;SDS011;11633;42.716;23.312;2022-08-04T05:49:59;3.70;;;3.08;;
22935;SDS011;11633;42.716;23.312;2022-08-04T05:52:25;3.97;;;3.10;;
22935;SDS011;11633;42.716;23.312;2022-08-04T05:54:51;3.58;;;3.28;;
22935;SDS011;11633;42.716;23.312;2022-08-04T05:57:17;3.47;;;3.17;;
22935;SDS011;11633;42.716;23.312;2022-08-04T05:59:42;3.78;;;3.13;;
22935;SDS011;11633;42.716;23.312;2022-08-04T06:02:10;4.47;;;3.17;;
22935;SDS011;11633;42.716;23.312;2022-08-04T06:04:37;4.75;;;3.17;;
22935;SDS011;11633;42.716;23.312;2022-08-04T06:07:03;3.42;;;3.15;;
22935;SDS011;11633;42.716;23.312;2022-08-04T06:09:29;4.65;;;3.22;;
22935;SDS011;11633;42.716;23.312;2022-08-04T06:11:55;3.47;;;3.22;;
22935;SDS011;11633;42.716;23.312;2022-08-04T06:14:22;3.92;;;3.58;;
22935;SDS011;11633;42.716;23.312;2022-08-04T06:16:48;4.05;;;3.58;;
22935;SDS011;11633;42.716;23.312;2022-08-04T06:19:15;4.50;;;4.07;;
22935;SDS011;11633;42.716;23.312;2022-08-04T06:21:42;5.20;;;3.92;;
22935;SDS011;11633;42.716;23.312;2022-08-04T06:24:10;3.80;;;3.38;;
22935;SDS011;11633;42.716;23.312;2022-08-04T06:26:36;4.60;;;3.58;;
22935;SDS011;11633;42.716;23.312;2022-08-04T06:29:02;4.72;;;4.32;;
22935;SDS011;11633;42.716;23.312;2022-08-04T06:31:28;4.55;;;4.15;;
22935;SDS011;11633;42.716;23.312;2022-08-04T06:48:36;4.35;;;3.95;;
22935;SDS011;11633;42.716;23.312;2022-08-04T06:51:01;4.38;;;3.97;;
22935;SDS011;11633;42.716;23.312;2022-08-04T06:53:45;4.15;;;3.75;;
22935;SDS011;11633;42.716;23.312;2022-08-04T06:56:11;5.63;;;4.20;;
22935;SDS011;11633;42.716;23.312;2022-08-04T06:58:37;4.18;;;3.85;;
22935;SDS011;11633;42.716;23.312;2022-08-04T07:01:03;4.68;;;3.70;;
22935;SDS011;11633;42.716;23.312;2022-08-04T07:03:29;3.65;;;3.35;;
22935;SDS011;11633;42.716;23.312;2022-08-04T07:05:54;3.88;;;3.58;;
22935;SDS011;11633;42.716;23.312;2022-08-04T07:08:20;4.43;;;4.03;;
22935;SDS011;11633;42.716;23.312;2022-08-04T07:10:45;4.00;;;3.70;;
22935;SDS011;11633;42.716;23.312;2022-08-04T07:13:11;3.67;;;3.38;;
22935;SDS011;11633;42.716;23.312;2022-08-04T07:15:37;4.50;;;4.10;;
22935;SDS011;11633;42.716;23.312;2022-08-04T07:18:05;4.20;;;3.80;;
22935;SDS011;11633;42.716;23.312;2022-08-04T07:20:30;4.55;;;4.15;;
22935;SDS011;11633;42.716;23.312;2022-08-04T07:22:56;4.38;;;3.97;;
22935;SDS011;11633;42.716;23.312;2022-08-04T07:25:24;4.00;;;3.60;;
22935;SDS011;11633;42.716;23.312;2022-08-04T07:27:49;4.05;;;3.65;;
22935;SDS011;11633;42.716;23.312;2022-08-04T07:30:14;4.47;;;3.85;;
22935;SDS011;11633;42.716;23.312;2022-08-04T07:32:41;4.30;;;3.92;;
22935;SDS011;11633;42.716;23.312;2022-08-04T07:35:07;4.90;;;4.50;;
22935;SDS011;11633;42.716;23.312;2022-08-04T07:37:33;5.07;;;4.57;;
22935;SDS011;11633;42.716;23.312;2022-08-04T07:39:59;4.75;;;3.80;;
22935;SDS011;11633;42.716;23.312;2022-08-04T07:42:24;3.70;;;3.40;;
22935;SDS011;11633;42.716;23.312;2022-08-04T07:44:50;3.58;;;3.15;;
22935;SDS011;11633;42.716;23.312;2022-08-04T07:47:16;4.63;;;4.22;;
22935;SDS011;11633;42.716;23.312;2022-08-04T07:49:41;4.55;;;4.15;;
22935;SDS011;11633;42.716;23.312;2022-08-04T07:52:07;5.57;;;5.07;;
22935;SDS011;11633;42.716;23.312;2022-08-04T07:54:32;8.30;;;4.68;;
22935;SDS011;11633;42.716;23.312;2022-08-04T07:56:58;4.18;;;3.78;;
22935;SDS011;11633;42.716;23.312;2022-08-04T07:59:23;8.10;;;3.95;;
22935;SDS011;11633;42.716;23.312;2022-08-04T08:01:49;4.20;;;3.90;;
22935;SDS011;11633;42.716;23.312;2022-08-04T08:04:14;4.07;;;3.75;;
22935;SDS011;11633;42.716;23.312;2022-08-04T08:20:24;3.95;;;3.55;;
22935;SDS011;11633;42.716;23.312;2022-08-04T08:22:49;4.75;;;4.03;;
22935;SDS011;11633;42.716;23.312;2022-08-04T08:25:15;5.65;;;3.42;;
22935;SDS011;11633;42.716;23.312;2022-08-04T08:27:40;3.80;;;3.42;;
22935;SDS011;11633;42.716;23.312;2022-08-04T08:30:05;5.57;;;3.83;;
22935;SDS011;11633;42.716;23.312;2022-08-04T08:32:31;2.78;;;2.58;;
22935;SDS011;11633;42.716;23.312;2022-08-04T08:34:56;3.83;;;3.53;;
22935;SDS011;11633;42.716;23.312;2022-08-04T08:52:36;4.38;;;3.10;;
22935;SDS011;11633;42.716;23.312;2022-08-04T09:00:24;3.15;;;2.83;;
22935;SDS011;11633;42.716;23.312;2022-08-04T09:06:08;3.38;;;2.30;;
22935;SDS011;11633;42.716;23.312;2022-08-04T09:10:48;3.20;;;2.90;;
22935;SDS011;11633;42.716;23.312;2022-08-04T09:21:12;3.03;;;2.73;;
22935;SDS011;11633;42.716;23.312;2022-08-04T09:28:42;3.22;;;2.55;;
22935;SDS011;11633;42.716;23.312;2022-08-04T09:31:16;3.03;;;2.28;;
22935;SDS011;11633;42.716;23.312;2022-08-04T09:36:14;2.60;;;2.40;;
22935;SDS011;11633;42.716;23.312;2022-08-04T09:41:33;2.10;;;2.00;;
22935;SDS011;11633;42.716;23.312;2022-08-04T09:46:27;2.17;;;1.98;;
22935;SDS011;11633;42.716;23.312;2022-08-04T09:48:57;2.38;;;2.10;;
22935;SDS011;11633;42.716;23.312;2022-08-04T09:54:11;2.15;;;1.98;;
22935;SDS011;11633;42.716;23.312;2022-08-04T09:56:40;2.03;;;1.90;;
22935;SDS011;11633;42.716;23.312;2022-08-04T09:59:21;1.85;;;1.67;;
22935;SDS011;11633;42.716;23.312;2022-08-04T10:01:50;1.83;;;1.73;;
22935;SDS011;11633;42.716;23.312;2022-08-04T10:04:17;2.35;;;1.75;;
22935;SDS011;11633;42.716;23.312;2022-08-04T10:19:33;1.45;;;1.35;;
22935;SDS011;11633;42.716;23.312;2022-08-04T10:22:16;1.77;;;1.65;;
22935;SDS011;11633;42.716;23.312;2022-08-04T10:24:59;1.35;;;1.23;;
22935;SDS011;11633;42.716;23.312;2022-08-04T10:29:53;2.07;;;1.43;;
22935;SDS011;11633;42.716;23.312;2022-08-04T10:32:24;1.73;;;1.55;;
22935;SDS011;11633;42.716;23.312;2022-08-04T10:34:58;1.30;;;1.20;;
22935;SDS011;11633;42.716;23.312;2022-08-04T10:37:30;1.25;;;1.15;;
22935;SDS011;11633;42.716;23.312;2022-08-04T10:42:44;1.10;;;1.02;;
22935;SDS011;11633;42.716;23.312;2022-08-04T10:45:17;1.27;;;0.95;;
22935;SDS011;11633;42.716;23.312;2022-08-04T10:48:06;1.70;;;1.52;;
22935;SDS011;11633;42.716;23.312;2022-08-04T10:50:29;1.60;;;1.50;;
22935;SDS011;11633;42.716;23.312;2022-08-04T10:52:56;1.35;;;1.25;;
22935;SDS011;11633;42.716;23.312;2022-08-04T10:55:32;1.30;;;1.20;;
22935;SDS011;11633;42.716;23.312;2022-08-04T10:58:03;1.40;;;1.30;;
22935;SDS011;11633;42.716;23.312;2022-08-04T11:00:30;1.20;;;1.10;;
22935;SDS011;11633;42.716;23.312;2022-08-04T11:02:58;2.17;;;1.08;;
22935;SDS011;11633;42.716;23.312;2022-08-04T11:05:28;1.40;;;1.30;;
22935;SDS011;11633;42.716;23.312;2022-08-04T11:08:01;1.70;;;1.60;;
22935;SDS011;11633;42.716;23.312;2022-08-04T11:10:28;1.58;;;1.33;;
22935;SDS011;11633;42.716;23.312;2022-08-04T11:12:58;1.65;;;1.55;;
22935;SDS011;11633;42.716;23.312;2022-08-04T11:15:48;1.35;;;1.20;;
22935;SDS011;11633;42.716;23.312;2022-08-04T11:18:18;1.30;;;1.20;;
22935;SDS011;11633;42.716;23.312;2022-08-04T11:20:49;3.17;;;1.77;;
22935;SDS011;11633;42.716;23.312;2022-08-04T11:23:16;1.23;;;1.17;;
22935;SDS011;11633;42.716;23.312;2022-08-04T11:25:57;1.15;;;1.05;;
22935;SDS011;11633;42.716;23.312;2022-08-04T11:28:45;1.00;;;1.00;;
22935;SDS011;11633;42.716;23.312;2022-08-04T11:31:13;1.30;;;1.20;;
22935;SDS011;11633;42.716;23.312;2022-08-04T11:33:43;1.10;;;1.00;;
22935;SDS011;11633;42.716;23.312;2022-08-04T11:36:14;1.88;;;1.40;;
22935;SDS011;11633;42.716;23.312;2022-08-04T11:41:36;1.10;;;1.10;;
22935;SDS011;11633;42.716;23.312;2022-08-04T11:44:03;1.40;;;1.30;;
22935;SDS011;11633;42.716;23.312;2022-08-04T11:48:59;1.50;;;1.40;;
22935;SDS011;11633;42.716;23.312;2022-08-04T11:51:25;1.40;;;1.30;;
22935;SDS011;11633;42.716;23.312;2022-08-04T11:53:51;1.20;;;1.10;;
22935;SDS011;11633;42.716;23.312;2022-08-04T11:56:16;1.27;;;1.17;;
22935;SDS011;11633;42.716;23.312;2022-08-04T11:58:42;1.35;;;1.25;;
22935;SDS011;11633;42.716;23.312;2022-08-04T12:06:51;1.63;;;1.52;;
22935;SDS011;11633;42.716;23.312;2022-08-04T12:09:38;1.40;;;1.30;;
22935;SDS011;11633;42.716;23.312;2022-08-04T12:14:52;1.60;;;1.50;;
22935;SDS011;11633;42.716;23.312;2022-08-04T12:20:05;1.40;;;1.30;;
22935;SDS011;11633;42.716;23.312;2022-08-04T12:22:39;1.55;;;1.45;;
22935;SDS011;11633;42.716;23.312;2022-08-04T12:25:09;1.33;;;1.23;;
22935;SDS011;11633;42.716;23.312;2022-08-04T12:27:36;1.80;;;1.70;;
22935;SDS011;11633;42.716;23.312;2022-08-04T12:30:04;1.52;;;1.42;;
22935;SDS011;11633;42.716;23.312;2022-08-04T12:35:14;1.50;;;1.40;;
22935;SDS011;11633;42.716;23.312;2022-08-04T12:40:27;1.60;;;1.50;;
22935;SDS011;11633;42.716;23.312;2022-08-04T12:45:22;1.65;;;1.52;;
22935;SDS011;11633;42.716;23.312;2022-08-04T12:47:47;1.55;;;1.40;;
22935;SDS011;11633;42.716;23.312;2022-08-04T12:50:14;1.58;;;1.48;;
22935;SDS011;11633;42.716;23.312;2022-08-04T12:52:44;1.48;;;1.38;;
22935;SDS011;11633;42.716;23.312;2022-08-04T12:55:10;1.98;;;1.55;;
22935;SDS011;11633;42.716;23.312;2022-08-04T12:57:36;1.40;;;1.30;;
22935;SDS011;11633;42.716;23.312;2022-08-04T13:00:03;1.60;;;1.50;;
22935;SDS011;11633;42.716;23.312;2022-08-04T13:02:29;1.75;;;1.65;;
22935;SDS011;11633;42.716;23.312;2022-08-04T13:04:57;1.60;;;1.50;;
22935;SDS011;11633;42.716;23.312;2022-08-04T13:07:23;2.33;;;1.40;;
22935;SDS011;11633;42.716;23.312;2022-08-04T13:09:50;1.80;;;1.70;;
22935;SDS011;11633;42.716;23.312;2022-08-04T13:12:23;2.33;;;2.10;;
22935;SDS011;11633;42.716;23.312;2022-08-04T13:14:50;1.90;;;1.70;;
22935;SDS011;11633;42.716;23.312;2022-08-04T13:17:17;1.60;;;1.50;;
22935;SDS011;11633;42.716;23.312;2022-08-04T13:19:46;1.50;;;1.40;;
22935;SDS011;11633;42.716;23.312;2022-08-04T13:22:12;1.63;;;1.52;;
22935;SDS011;11633;42.716;23.312;2022-08-04T13:24:40;1.45;;;1.35;;
22935;SDS011;11633;42.716;23.312;2022-08-04T13:27:08;2.97;;;1.85;;
22935;SDS011;11633;42.716;23.312;2022-08-04T13:29:40;2.00;;;1.90;;
22935;SDS011;11633;42.716;23.312;2022-08-04T13:32:06;1.77;;;1.67;;
22935;SDS011;11633;42.716;23.312;2022-08-04T13:34:33;1.35;;;1.25;;
22935;SDS011;11633;42.716;23.312;2022-08-04T13:36:59;1.63;;;1.52;;
22935;SDS011;11633;42.716;23.312;2022-08-04T13:39:25;1.63;;;1.52;;
22935;SDS011;11633;42.716;23.312;2022-08-04T13:41:52;1.73;;;1.63;;
22935;SDS011;11633;42.716;23.312;2022-08-04T13:44:22;2.40;;;1.50;;
22935;SDS011;11633;42.716;23.312;2022-08-04T13:46:52;1.40;;;1.30;;
22935;SDS011;11633;42.716;23.312;2022-08-04T13:49:19;1.30;;;1.20;;
22935;SDS011;11633;42.716;23.312;2022-08-04T13:51:58;1.85;;;1.75;;
22935;SDS011;11633;42.716;23.312;2022-08-04T13:54:25;1.55;;;1.45;;
22935;SDS011;11633;42.716;23.312;2022-08-04T13:56:52;1.40;;;1.30;;
22935;SDS011;11633;42.716;23.312;2022-08-04T13:59:19;1.50;;;1.40;;
22935;SDS011;11633;42.716;23.312;2022-08-04T14:01:46;1.50;;;1.40;;
22935;SDS011;11633;42.716;23.312;2022-08-04T14:04:20;1.92;;;1.63;;
22935;SDS011;11633;42.716;23.312;2022-08-04T14:09:16;1.58;;;1.48;;
22935;SDS011;11633;42.716;23.312;2022-08-04T14:11:43;2.35;;;1.60;;
22935;SDS011;11633;42.716;23.312;2022-08-04T14:22:26;2.00;;;1.90;;
22935;SDS011;11633;42.716;23.312;2022-08-04T14:27:20;1.80;;;1.70;;
22935;SDS011;11633;42.716;23.312;2022-08-04T14:29:45;1.58;;;1.33;;
22935;SDS011;11633;42.716;23.312;2022-08-04T14:32:10;1.77;;;1.67;;
22935;SDS011;11633;42.716;23.312;2022-08-04T14:34:37;2.05;;;1.67;;
22935;SDS011;11633;42.716;23.312;2022-08-04T14:37:05;2.05;;;1.85;;
22935;SDS011;11633;42.716;23.312;2022-08-04T14:39:35;1.50;;;1.40;;
22935;SDS011;11633;42.716;23.312;2022-08-04T14:42:00;1.98;;;1.60;;
22935;SDS011;11633;42.716;23.312;2022-08-04T14:44:25;1.50;;;1.40;;
22935;SDS011;11633;42.716;23.312;2022-08-04T14:46:52;1.40;;;1.30;;
22935;SDS011;11633;42.716;23.312;2022-08-04T14:49:17;2.85;;;1.98;;
22935;SDS011;11633;42.716;23.312;2022-08-04T14:51:56;1.50;;;1.40;;
22935;SDS011;11633;42.716;23.312;2022-08-04T14:54:30;1.50;;;1.40;;
22935;SDS011;11633;42.716;23.312;2022-08-04T14:56:57;1.70;;;1.60;;
22935;SDS011;11633;42.716;23.312;2022-08-04T14:59:24;1.75;;;1.65;;
22935;SDS011;11633;42.716;23.312;2022-08-04T15:01:50;1.65;;;1.55;;
22935;SDS011;11633;42.716;23.312;2022-08-04T15:04:16;2.05;;;1.80;;
22935;SDS011;11633;42.716;23.312;2022-08-04T15:06:42;1.58;;;1.48;;
22935;SDS011;11633;42.716;23.312;2022-08-04T15:09:08;1.65;;;1.55;;
22935;SDS011;11633;42.716;23.312;2022-08-04T15:11:34;1.65;;;1.50;;
22935;SDS011;11633;42.716;23.312;2022-08-04T15:14:00;1.92;;;1.83;;
22935;SDS011;11633;42.716;23.312;2022-08-04T15:16:26;1.50;;;1.33;;
22935;SDS011;11633;42.716;23.312;2022-08-04T15:18:52;1.20;;;1.10;;
22935;SDS011;11633;42.716;23.312;2022-08-04T15:21:18;1.67;;;1.58;;
22935;SDS011;11633;42.716;23.312;2022-08-04T15:23:46;1.48;;;1.38;;
22935;SDS011;11633;42.716;23.312;2022-08-04T15:26:12;1.80;;;1.70;;
22935;SDS011;11633;42.716;23.312;2022-08-04T15:28:39;1.58;;;1.48;;
22935;SDS011;11633;42.716;23.312;2022-08-04T15:31:05;1.77;;;1.67;;
22935;SDS011;11633;42.716;23.312;2022-08-04T15:33:30;1.70;;;1.60;;
22935;SDS011;11633;42.716;23.312;2022-08-04T15:41:31;2.13;;;1.75;;
22935;SDS011;11633;42.716;23.312;2022-08-04T15:44:05;1.85;;;1.73;;
22935;SDS011;11633;42.716;23.312;2022-08-04T15:49:20;1.95;;;1.85;;
22935;SDS011;11633;42.716;23.312;2022-08-04T15:51:45;1.80;;;1.70;;
22935;SDS011;11633;42.716;23.312;2022-08-04T15:56:43;2.05;;;1.85;;
22935;SDS011;11633;42.716;23.312;2022-08-04T16:02:27;1.40;;;1.30;;
22935;SDS011;11633;42.716;23.312;2022-08-04T16:15:40;4.43;;;3.22;;
22935;SDS011;11633;42.716;23.312;2022-08-04T16:18:06;2.15;;;1.52;;
22935;SDS011;11633;42.716;23.312;2022-08-04T16:20:32;2.42;;;2.08;;
22935;SDS011;11633;42.716;23.312;2022-08-04T16:22:59;2.40;;;2.20;;
22935;SDS011;11633;42.716;23.312;2022-08-04T16:25:41;2.45;;;2.25;;
22935;SDS011;11633;42.716;23.312;2022-08-04T16:28:10;2.03;;;1.85;;
22935;SDS011;11633;42.716;23.312;2022-08-04T16:31:00;1.90;;;1.80;;
22935;SDS011;11633;42.716;23.312;2022-08-04T16:33:26;2.97;;;2.63;;
22935;SDS011;11633;42.716;23.312;2022-08-04T16:37:11;2.38;;;2.17;;
22935;SDS011;11633;42.716;23.312;2022-08-04T16:39:37;1.73;;;1.63;;
22935;SDS011;11633;42.716;23.312;2022-08-04T16:45:37;1.90;;;1.80;;
22935;SDS011;11633;42.716;23.312;2022-08-04T16:52:45;1.53;;;1.43;;
22935;SDS011;11633;42.716;23.312;2022-08-04T16:55:11;2.25;;;1.80;;
22935;SDS011;11633;42.716;23.312;2022-08-04T16:57:38;1.70;;;1.60;;
22935;SDS011;11633;42.716;23.312;2022-08-04T17:00:04;2.70;;;1.83;;
22935;SDS011;11633;42.716;23.312;2022-08-04T17:02:29;1.63;;;1.52;;
22935;SDS011;11633;42.716;23.312;2022-08-04T17:04:55;1.90;;;1.80;;
22935;SDS011;11633;42.716;23.312;2022-08-04T17:07:20;2.00;;;1.65;;
22935;SDS011;11633;42.716;23.312;2022-08-04T17:09:48;2.15;;;1.70;;
22935;SDS011;11633;42.716;23.312;2022-08-04T17:12:14;2.22;;;1.80;;
22935;SDS011;11633;42.716;23.312;2022-08-04T17:14:39;1.65;;;1.50;;
22935;SDS011;11633;42.716;23.312;2022-08-04T17:17:04;2.95;;;2.22;;
22935;SDS011;11633;42.716;23.312;2022-08-04T17:19:30;3.33;;;2.22;;
22935;SDS011;11633;42.716;23.312;2022-08-04T17:21:56;3.63;;;3.00;;
22935;SDS011;11633;42.716;23.312;2022-08-04T17:24:24;5.70;;;2.78;;
22935;SDS011;11633;42.716;23.312;2022-08-04T17:26:49;3.80;;;2.95;;
22935;SDS011;11633;42.716;23.312;2022-08-04T17:29:15;2.80;;;2.47;;
22935;SDS011;11633;42.716;23.312;2022-08-04T17:31:40;2.28;;;1.90;;
22935;SDS011;11633;42.716;23.312;2022-08-04T17:34:12;1.80;;;1.70;;
22935;SDS011;11633;42.716;23.312;2022-08-04T17:36:38;3.38;;;3.03;;
22935;SDS011;11633;42.716;23.312;2022-08-04T17:39:13;1.70;;;1.55;;
22935;SDS011;11633;42.716;23.312;2022-08-04T17:41:39;2.15;;;1.73;;
22935;SDS011;11633;42.716;23.312;2022-08-04T17:44:04;1.63;;;1.52;;
22935;SDS011;11633;42.716;23.312;2022-08-04T17:54:00;1.55;;;1.45;;
22935;SDS011;11633;42.716;23.312;2022-08-04T17:56:38;1.83;;;1.73;;
22935;SDS011;11633;42.716;23.312;2022-08-04T17:59:08;1.65;;;1.55;;
22935;SDS011;11633;42.716;23.312;2022-08-04T18:06:57;1.80;;;1.70;;
22935;SDS011;11633;42.716;23.312;2022-08-04T18:09:23;2.03;;;1.83;;
22935;SDS011;11633;42.716;23.312;2022-08-04T18:11:59;3.28;;;1.80;;
22935;SDS011;11633;42.716;23.312;2022-08-04T18:14:25;2.20;;;2.00;;
22935;SDS011;11633;42.716;23.312;2022-08-04T18:16:52;1.90;;;1.75;;
22935;SDS011;11633;42.716;23.312;2022-08-04T18:19:17;2.30;;;2.10;;
22935;SDS011;11633;42.716;23.312;2022-08-04T18:21:42;1.70;;;1.60;;
22935;SDS011;11633;42.716;23.312;2022-08-04T18:24:09;2.40;;;1.80;;
22935;SDS011;11633;42.716;23.312;2022-08-04T18:26:35;1.95;;;1.85;;
22935;SDS011;11633;42.716;23.312;2022-08-04T18:29:02;3.47;;;2.00;;
22935;SDS011;11633;42.716;23.312;2022-08-04T18:31:28;2.15;;;1.67;;
22935;SDS011;11633;42.716;23.312;2022-08-04T18:33:54;2.25;;;2.03;;
22935;SDS011;11633;42.716;23.312;2022-08-04T18:36:19;2.80;;;1.92;;
22935;SDS011;11633;42.716;23.312;2022-08-04T18:38:44;2.17;;;2.00;;
22935;SDS011;11633;42.716;23.312;2022-08-04T18:41:09;2.72;;;1.83;;
22935;SDS011;11633;42.716;23.312;2022-08-04T18:43:35;2.20;;;1.67;;
22935;SDS011;11633;42.716;23.312;2022-08-04T18:46:00;2.97;;;2.40;;
22935;SDS011;11633;42.716;23.312;2022-08-04T18:48:26;1.92;;;1.75;;
22935;SDS011;11633;42.716;23.312;2022-08-04T18:50:51;2.60;;;2.40;;
22935;SDS011;11633;42.716;23.312;2022-08-04T18:53:17;2.33;;;2.13;;
22935;SDS011;11633;42.716;23.312;2022-08-04T18:55:42;2.30;;;2.10;;
22935;SDS011;11633;42.716;23.312;2022-08-04T18:58:07;2.28;;;2.03;;
22935;SDS011;11633;42.716;23.312;2022-08-04T19:00:33;1.92;;;1.83;;
22935;SDS011;11633;42.716;23.312;2022-08-04T19:02:58;2.25;;;2.13;;
22935;SDS011;11633;42.716;23.312;2022-08-04T19:05:23;2.53;;;2.05;;
22935;SDS011;11633;42.716;23.312;2022-08-04T19:07:48;2.57;;;2.27;;
22935;SDS011;11633;42.716;23.312;2022-08-04T19:10:14;2.38;;;2.17;;
22935;SDS011;11633;42.716;23.312;2022-08-04T19:12:41;3.38;;;2.15;;
22935;SDS011;11633;42.716;23.312;2022-08-04T19:15:07;2.67;;;2.38;;
22935;SDS011;11633;42.716;23.312;2022-08-04T19:17:32;2.67;;;2.47;;
22935;SDS011;11633;42.716;23.312;2022-08-04T19:19:57;2.60;;;2.40;;
22935;SDS011;11633;42.716;23.312;2022-08-04T19:22:23;2.80;;;2.60;;
22935;SDS011;11633;42.716;23.312;2022-08-04T19:24:48;2.30;;;2.10;;
22935;SDS011;11633;42.716;23.312;2022-08-04T19:27:13;5.50;;;4.13;;
22935;SDS011;11633;42.716;23.312;2022-08-04T19:29:38;3.55;;;3.15;;
22935;SDS011;11633;42.716;23.312;2022-08-04T19:32:04;3.38;;;3.08;;
22935;SDS011;11633;42.716;23.312;2022-08-04T19:34:30;3.00;;;2.75;;
22935;SDS011;11633;42.716;23.312;2022-08-04T19:36:55;3.53;;;2.88;;
22935;SDS011;11633;42.716;23.312;2022-08-04T19:39:20;2.30;;;2.08;;
22935;SDS011;11633;42.716;23.312;2022-08-04T19:41:45;3.15;;;2.47;;
22935;SDS011;11633;42.716;23.312;2022-08-04T19:44:12;3.08;;;2.58;;
22935;SDS011;11633;42.716;23.312;2022-08-04T19:46:37;3.13;;;2.58;;
22935;SDS011;11633;42.716;23.312;2022-08-04T19:49:02;4.43;;;3.70;;
22935;SDS011;11633;42.716;23.312;2022-08-04T19:51:28;2.75;;;2.38;;
22935;SDS011;11633;42.716;23.312;2022-08-04T19:53:54;4.30;;;2.70;;
22935;SDS011;11633;42.716;23.312;2022-08-04T19:56:19;3.38;;;2.42;;
22935;SDS011;11633;42.716;23.312;2022-08-04T19:58:44;2.40;;;2.20;;
22935;SDS011;11633;42.716;23.312;2022-08-04T20:01:11;2.45;;;2.15;;